Time;durP1;ratioP1;P1;durP2;ratioP2;P2;SDS_P1;SDS_P2;PMS_P1;PMS_P2;Temp;Humidity;BMP_temperature;BMP_pressure;BME280_temperature;BME280_humidity;BME280_pressure;Samples;Min_cycle;Max_cycle;Signal;HPM_P1;HPM_P2
2022/04/06 00:01:44;;;;;;;5.18;2.47;;;;;;;5.41;100.00;98172.50;4379287;32;20095;-70
2022/04/06 00:04:12;;;;;;;5.03;2.40;;;;;;;5.39;100.00;98182.19;4365685;32;20117;-70
2022/04/06 00:06:40;;;;;;;3.25;2.50;;;;;;;5.38;100.00;98172.72;4379308;32;20090;-70
2022/04/06 00:09:18;;;;;;;4.35;2.20;;;;;;;5.36;99.61;98181.56;4379433;32;20444;-70
2022/04/06 00:11:45;;;;;;;2.35;2.10;;;;;;;5.43;99.46;98169.78;4379045;32;20700;-70
2022/04/06 00:14:13;;;;;;;3.53;2.40;;;;;;;5.47;99.46;98171.19;4365624;32;20095;-70
2022/04/06 00:16:41;;;;;;;5.18;2.25;;;;;;;5.44;99.53;98169.66;4378837;32;20090;-70
2022/04/06 00:19:08;;;;;;;4.57;2.22;;;;;;;5.54;99.66;98179.31;4379212;32;20113;-71
2022/04/06 00:21:35;;;;;;;2.85;2.28;;;;;;;5.44;99.90;98180.03;4379255;32;20121;-70
2022/04/06 00:24:02;;;;;;;2.00;1.77;;;;;;;5.33;100.00;98190.44;4379013;32;20117;-70
2022/04/06 00:26:30;;;;;;;8.05;2.20;;;;;;;5.28;100.00;98187.34;4379009;32;20083;-70
2022/04/06 00:28:57;;;;;;;2.60;2.00;;;;;;;5.21;100.00;98187.00;4379036;32;20385;-70
2022/04/06 00:31:24;;;;;;;3.00;2.03;;;;;;;5.21;100.00;98181.81;4379133;32;20453;-70
2022/04/06 00:33:51;;;;;;;2.87;2.00;;;;;;;5.21;100.00;98193.97;4378753;32;20082;-70
2022/04/06 00:36:18;;;;;;;5.28;2.28;;;;;;;5.19;100.00;98198.47;4378925;32;20117;-70
2022/04/06 00:38:46;;;;;;;3.35;2.37;;;;;;;5.32;100.00;98206.97;4378948;32;20141;-71
2022/04/06 00:41:13;;;;;;;2.17;1.58;;;;;;;5.41;100.00;98203.66;4378960;32;20086;-70
2022/04/06 00:43:40;;;;;;;2.15;1.67;;;;;;;5.41;100.00;98206.25;4378991;32;20141;-70
2022/04/06 00:46:07;;;;;;;4.07;2.25;;;;;;;5.35;100.00;98196.34;4379129;32;20198;-70
2022/04/06 00:48:34;;;;;;;3.45;2.00;;;;;;;5.31;100.00;98197.50;4378792;32;20111;-71
2022/04/06 00:51:01;;;;;;;2.47;1.52;;;;;;;5.29;100.00;98194.22;4378935;32;20499;-70
2022/04/06 00:53:29;;;;;;;3.40;2.08;;;;;;;5.39;100.00;98195.16;4378697;32;20145;-70
2022/04/06 00:55:56;;;;;;;4.22;2.30;;;;;;;5.56;100.00;98190.44;4365274;32;20101;-70
2022/04/06 00:58:24;;;;;;;2.25;1.70;;;;;;;5.75;100.00;98197.59;4378648;32;20133;-70
2022/04/06 01:00:51;;;;;;;3.42;1.60;;;;;;;5.80;100.00;98196.31;4378670;32;20103;-70
2022/04/06 01:03:18;;;;;;;2.45;1.58;;;;;;;6.03;99.56;98194.50;4378609;32;20079;-70
2022/04/06 01:05:47;;;;;;;3.05;1.75;;;;;;;6.10;98.73;98188.81;4378651;32;20087;-70
2022/04/06 01:08:14;;;;;;;2.05;1.50;;;;;;;6.07;99.07;98192.50;4378538;32;20111;-70
2022/04/06 01:10:41;;;;;;;2.15;1.58;;;;;;;6.29;97.91;98188.16;4378934;32;20087;-70
2022/04/06 01:13:09;;;;;;;2.10;1.50;;;;;;;6.44;97.55;98192.13;4364963;32;20449;-70
2022/04/06 01:15:37;;;;;;;2.05;1.40;;;;;;;6.47;96.51;98197.06;4365008;32;20094;-70
2022/04/06 01:18:04;;;;;;;1.58;1.25;;;;;;;6.41;96.74;98194.16;4378388;32;20099;-70
2022/04/06 01:20:31;;;;;;;1.62;1.40;;;;;;;6.51;96.33;98197.63;4378441;32;20117;-70
2022/04/06 01:22:59;;;;;;;2.12;1.60;;;;;;;6.39;96.84;98202.06;4378450;32;20103;-70
2022/04/06 01:25:27;;;;;;;4.12;1.90;;;;;;;6.66;95.69;98201.59;4378161;32;20444;-70
2022/04/06 01:27:54;;;;;;;2.30;1.75;;;;;;;6.68;95.76;98198.88;4379336;32;20102;-70
2022/04/06 01:30:22;;;;;;;2.55;1.62;;;;;;;6.64;95.83;98198.28;4380170;32;20121;-71
2022/04/06 01:32:49;;;;;;;2.08;1.48;;;;;;;6.69;95.50;98203.94;4380320;32;20094;-70
2022/04/06 01:38:46;;;;;;;2.65;1.58;;;;;;;6.82;95.31;98200.31;4380310;32;20134;-70
2022/04/06 01:41:14;;;;;;;2.75;1.77;;;;;;;7.01;94.10;98189.19;4380261;32;20137;-70
2022/04/06 01:43:41;;;;;;;2.85;1.77;;;;;;;6.96;93.74;98189.56;4380395;32;20535;-70
2022/04/06 01:46:08;;;;;;;3.05;1.92;;;;;;;7.04;93.88;98183.72;4380094;32;20448;-70
2022/04/06 01:52:11;;;;;;;3.53;1.60;;;;;;;7.09;93.03;98184.16;4380300;32;20382;-70
2022/04/06 01:54:08;;;;;;;1.92;1.42;;;;;;;7.04;93.43;98194.97;4380109;32;20101;-71
2022/04/06 01:56:35;;;;;;;3.60;1.33;;;;;;;7.03;92.88;98192.50;4380108;32;20090;-70
2022/04/06 01:59:02;;;;;;;2.92;1.80;;;;;;;6.97;92.88;98190.41;4380153;32;20434;-70
2022/04/06 02:01:29;;;;;;;2.53;1.80;;;;;;;6.90;93.29;98184.88;4379953;32;20103;-71
2022/04/06 02:03:58;;;;;;;2.05;1.42;;;;;;;6.87;93.59;98188.59;4380410;32;20113;-70
2022/04/06 02:06:25;;;;;;;2.20;1.45;;;;;;;6.81;93.76;98175.25;4380130;32;20117;-71
2022/04/06 02:08:53;;;;;;;2.03;1.73;;;;;;;6.77;94.44;98179.87;4380121;32;20488;-71
2022/04/06 02:11:20;;;;;;;2.30;1.73;;;;;;;6.77;94.75;98181.63;4380198;32;20438;-71
2022/04/06 02:13:47;;;;;;;2.60;1.67;;;;;;;6.68;95.27;98175.44;4380064;32;20086;-71
2022/04/06 02:16:14;;;;;;;2.67;2.17;;;;;;;6.75;95.46;98171.34;4380167;32;20429;-70
2022/04/06 02:18:42;;;;;;;2.47;1.73;;;;;;;6.74;95.70;98169.72;4380069;32;20099;-71
2022/04/06 02:21:09;;;;;;;3.10;1.40;;;;;;;6.73;95.50;98175.88;4379958;32;20137;-71
2022/04/06 02:23:36;;;;;;;2.10;1.40;;;;;;;6.63;95.38;98172.37;4379938;32;20091;-71
2022/04/06 02:26:03;;;;;;;1.25;1.15;;;;;;;6.63;95.70;98181.03;4379845;32;20491;-71
2022/04/06 02:28:31;;;;;;;2.67;1.45;;;;;;;6.64;95.78;98177.47;4379949;32;20126;-71
2022/04/06 02:30:58;;;;;;;2.25;1.50;;;;;;;6.62;95.22;98178.56;4379938;32;20169;-71
2022/04/06 02:33:25;;;;;;;1.83;1.40;;;;;;;6.56;95.64;98191.09;4379616;32;20086;-70
2022/04/06 02:35:53;;;;;;;3.50;2.72;;;;;;;6.57;93.42;98187.56;4380142;32;20091;-70
2022/04/06 02:38:20;;;;;;;3.87;2.72;;;;;;;6.33;93.90;98185.19;4380197;32;20099;-71
2022/04/06 02:40:47;;;;;;;4.45;3.17;;;;;;;6.24;94.58;98187.69;4380102;32;20094;-70
2022/04/06 02:43:14;;;;;;;6.78;3.40;;;;;;;6.17;95.39;98193.38;4379948;32;20103;-70
2022/04/06 02:45:41;;;;;;;4.32;3.08;;;;;;;6.08;96.37;98190.72;4379899;32;20090;-71
2022/04/06 02:48:08;;;;;;;3.95;3.00;;;;;;;6.06;96.59;98175.25;4379802;32;20091;-71
2022/04/06 02:50:36;;;;;;;4.45;3.45;;;;;;;6.02;96.73;98182.44;4379984;32;20099;-71
2022/04/06 02:53:03;;;;;;;4.55;3.22;;;;;;;5.91;97.07;98179.84;4379645;32;20086;-71
2022/04/06 02:55:30;;;;;;;3.80;2.67;;;;;;;5.94;97.49;98179.59;4379727;32;20112;-71
2022/04/06 02:57:57;;;;;;;3.55;2.67;;;;;;;5.98;97.53;98188.84;4379814;32;20125;-71
2022/04/06 03:00:24;;;;;;;6.18;2.78;;;;;;;5.93;97.74;98192.72;4379740;32;20102;-71
2022/04/06 03:02:51;;;;;;;4.82;3.25;;;;;;;5.86;97.80;98198.41;4379625;32;20109;-70
2022/04/06 03:05:19;;;;;;;9.98;3.05;;;;;;;5.87;98.23;98199.22;4379841;32;20102;-71
2022/04/06 03:07:46;;;;;;;5.32;3.55;;;;;;;5.81;97.58;98189.31;4379787;32;20091;-71
2022/04/06 03:10:13;;;;;;;3.53;2.87;;;;;;;5.81;98.76;98195.37;4379777;32;20599;-71
2022/04/06 03:12:41;;;;;;;5.43;3.28;;;;;;;5.87;99.11;98212.22;4379521;32;20173;-71
2022/04/06 03:15:08;;;;;;;3.20;2.72;;;;;;;6.06;99.25;98211.63;4379673;32;20121;-71
2022/04/06 03:17:36;;;;;;;4.70;3.17;;;;;;;6.04;99.89;98210.91;4379651;32;20130;-70
2022/04/06 03:20:05;;;;;;;4.65;3.33;;;;;;;6.41;98.65;98210.56;4379846;32;20090;-71
2022/04/06 03:22:32;;;;;;;4.85;3.40;;;;;;;6.28;98.92;98212.50;4379507;32;20441;-71
2022/04/06 03:25:00;;;;;;;5.05;3.40;;;;;;;6.62;98.08;98210.59;4379548;32;20132;-70
2022/04/06 03:27:27;;;;;;;6.80;3.25;;;;;;;7.01;95.27;98204.81;4379810;32;20137;-70
2022/04/06 03:29:54;;;;;;;6.05;3.42;;;;;;;6.92;95.59;98203.81;4379716;32;20091;-71
2022/04/06 03:32:21;;;;;;;6.28;3.80;;;;;;;6.79;96.87;98190.97;4379312;32;20094;-70
2022/04/06 03:34:49;;;;;;;5.53;3.80;;;;;;;6.90;96.23;98187.47;4379549;32;20145;-70
2022/04/06 03:37:16;;;;;;;5.78;3.92;;;;;;;6.97;95.88;98187.81;4379479;32;20106;-71
2022/04/06 03:39:43;;;;;;;5.70;3.87;;;;;;;6.72;97.22;98189.84;4379508;32;20129;-71
2022/04/06 03:42:10;;;;;;;6.72;3.90;;;;;;;6.85;96.43;98190.47;4379498;32;20493;-71
2022/04/06 03:44:37;;;;;;;4.62;3.35;;;;;;;6.77;96.26;98195.50;4379506;32;20338;-70
2022/04/06 03:47:05;;;;;;;5.07;3.15;;;;;;;7.04;94.91;98184.56;4379489;32;20113;-71
2022/04/06 03:49:32;;;;;;;7.22;3.22;;;;;;;7.16;93.52;98194.87;4379199;32;20166;-70
2022/04/06 03:51:59;;;;;;;4.22;3.30;;;;;;;7.18;92.51;98204.22;4379066;32;20667;-71
2022/04/06 03:54:26;;;;;;;15.57;8.05;;;;;;;7.02;93.61;98211.69;4379246;32;20112;-70
2022/04/06 03:56:54;;;;;;;5.87;3.65;;;;;;;7.16;93.53;98213.97;4379202;32;20193;-70
2022/04/06 03:59:21;;;;;;;4.80;3.20;;;;;;;7.36;92.26;98208.81;4379297;32;20444;-70
2022/04/06 04:01:48;;;;;;;5.60;3.70;;;;;;;7.51;91.01;98206.69;4379621;32;20082;-70
2022/04/06 04:04:16;;;;;;;3.95;3.17;;;;;;;7.33;92.71;98201.25;4379099;32;20144;-70
2022/04/06 04:06:44;;;;;;;4.32;3.15;;;;;;;7.31;92.64;98206.59;4379248;32;20426;-70
2022/04/06 04:09:11;;;;;;;4.70;3.28;;;;;;;7.34;92.48;98197.72;4379266;32;20106;-71
2022/04/06 04:11:42;;;;;;;6.55;2.97;;;;;;;7.52;91.17;98206.56;4379286;32;20140;-70
2022/04/06 04:14:09;;;;;;;5.25;3.12;;;;;;;7.92;89.64;98202.31;4378974;32;20108;-70
2022/04/06 04:16:36;;;;;;;4.03;3.20;;;;;;;8.20;86.99;98208.50;4378921;32;20107;-70
2022/04/06 04:19:03;;;;;;;4.87;3.30;;;;;;;8.23;87.48;98216.06;4378788;32;20106;-71
2022/04/06 04:21:34;;;;;;;4.97;3.20;;;;;;;8.08;87.31;98201.78;4377994;32;20078;-70
2022/04/06 04:24:03;;;;;;;7.30;2.75;;;;;;;7.90;88.56;98193.78;4379288;32;20071;-71
2022/04/06 04:26:31;;;;;;;5.47;3.28;;;;;;;7.82;89.21;98195.25;4379062;32;20121;-71
2022/04/06 04:28:58;;;;;;;3.40;2.87;;;;;;;7.63;90.09;98192.59;4379239;32;20107;-71
2022/04/06 04:31:25;;;;;;;5.12;3.05;;;;;;;7.58;90.65;98200.81;4378932;32;20503;-71
2022/04/06 04:33:52;;;;;;;4.37;2.70;;;;;;;7.76;88.92;98205.41;4378947;32;20116;-72
2022/04/06 04:36:20;;;;;;;4.30;2.90;;;;;;;7.68;89.28;98203.47;4379005;32;20114;-73
2022/04/06 04:38:47;;;;;;;5.07;3.15;;;;;;;7.73;89.19;98206.50;4379364;32;20094;-73
2022/04/06 04:41:14;;;;;;;5.18;3.03;;;;;;;7.87;88.52;98215.72;4378933;32;20090;-72
2022/04/06 04:43:42;;;;;;;5.18;2.70;;;;;;;7.99;88.20;98219.88;4378624;32;20086;-72
2022/04/06 04:46:09;;;;;;;4.10;2.50;;;;;;;7.91;87.89;98219.72;4378698;32;20125;-71
2022/04/06 04:48:38;;;;;;;5.47;2.97;;;;;;;7.94;87.46;98224.66;4378639;32;20106;-71
2022/04/06 04:51:05;;;;;;;4.80;2.92;;;;;;;8.03;87.93;98228.25;4378710;32;20086;-71
2022/04/06 04:53:33;;;;;;;3.75;2.58;;;;;;;7.99;87.28;98219.03;4378752;32;20125;-72
2022/04/06 04:56:00;;;;;;;5.35;3.25;;;;;;;8.39;85.91;98222.53;4378816;32;20107;-71
2022/04/06 04:58:27;;;;;;;4.97;2.83;;;;;;;8.64;84.31;98219.41;4378493;32;20164;-71
2022/04/06 05:00:54;;;;;;;4.85;2.87;;;;;;;8.94;83.04;98222.81;4378506;32;20090;-71
2022/04/06 05:03:22;;;;;;;4.10;2.60;;;;;;;8.81;84.18;98227.50;4379620;32;20113;-72
2022/04/06 05:09:20;;;;;;;3.87;2.58;;;;;;;8.85;83.21;98234.09;4380364;32;20125;-71
2022/04/06 05:11:47;;;;;;;4.35;3.03;;;;;;;8.91;82.64;98236.16;4380283;32;20098;-71
2022/04/06 05:14:14;;;;;;;4.18;2.67;;;;;;;8.93;81.88;98230.78;4366211;32;20519;-71
2022/04/06 05:16:41;;;;;;;5.50;2.97;;;;;;;9.06;81.11;98236.53;4380191;32;20354;-71
2022/04/06 05:19:09;;;;;;;4.10;2.92;;;;;;;8.91;81.75;98235.34;4380324;32;20102;-71
2022/04/06 05:21:36;;;;;;;4.03;2.42;;;;;;;8.99;81.12;98235.44;4380302;32;20106;-71
2022/04/06 05:24:04;;;;;;;4.20;2.65;;;;;;;8.85;81.87;98236.72;4379683;32;20571;-71
2022/04/06 05:30:11;;;;;;;6.40;4.10;;;;;;;9.58;78.94;98241.34;4380051;32;20496;-71
2022/04/06 05:32:39;;;;;;;4.40;2.80;;;;;;;9.76;77.34;98238.78;4379841;32;20097;-71
2022/04/06 05:35:08;;;;;;;4.05;2.87;;;;;;;9.82;76.48;98242.63;4379909;32;20074;-71
2022/04/06 05:41:05;;;;;;;5.03;2.60;;;;;;;10.37;74.03;98250.47;4380129;32;20499;-71
2022/04/06 05:43:33;;;;;;;4.95;2.80;;;;;;;10.61;72.70;98256.88;4379439;32;20113;-71
2022/04/06 05:49:30;;;;;;;5.10;3.37;;;;;;;10.71;73.16;98254.19;4380123;32;20117;-71
2022/04/06 05:51:57;;;;;;;6.97;2.90;;;;;;;11.27;69.83;98265.28;4379901;32;20099;-71
2022/04/06 05:57:43;;;;;;;4.60;3.03;;;;;;;10.92;70.31;98272.22;4380007;32;20432;-71
2022/04/06 06:00:11;;;;;;;4.97;3.40;;;;;;;10.65;71.60;98269.53;4379825;32;20137;-71
2022/04/06 06:02:39;;;;;;;5.37;3.58;;;;;;;10.84;71.52;98278.22;4379944;32;20137;-72
2022/04/06 06:05:06;;;;;;;7.80;4.05;;;;;;;10.45;72.06;98275.91;4379869;32;20132;-72
2022/04/06 06:07:33;;;;;;;8.32;4.00;;;;;;;10.15;73.71;98280.44;4379615;32;20589;-72
2022/04/06 06:10:02;;;;;;;7.97;4.00;;;;;;;10.28;73.11;98273.06;4379652;32;20095;-72
2022/04/06 06:16:04;;;;;;;4.75;3.58;;;;;;;10.49;72.06;98269.38;4379803;32;20105;-71
2022/04/06 06:18:34;;;;;;;6.82;4.00;;;;;;;10.53;72.00;98267.28;4379814;32;20226;-72
2022/04/06 06:21:05;;;;;;;7.37;3.97;;;;;;;10.44;72.77;98269.81;4379777;32;20460;-72
2022/04/06 06:23:33;;;;;;;7.53;4.87;;;;;;;10.51;71.99;98274.47;4379816;32;20095;-72
2022/04/06 06:26:01;;;;;;;6.55;3.72;;;;;;;10.55;72.80;98281.91;4379910;32;20083;-73
2022/04/06 06:28:28;;;;;;;8.88;4.62;;;;;;;10.71;72.29;98275.97;4379953;32;20161;-72
2022/04/06 06:34:25;;;;;;;11.07;5.20;;;;;;;11.00;72.13;98275.72;4378768;32;20120;-71
2022/04/06 06:36:53;;;;;;;7.28;4.30;;;;;;;11.41;70.25;98269.94;4379610;32;20082;-72
2022/04/06 06:42:50;;;;;;;11.50;6.70;;;;;;;11.15;71.53;98273.38;4379809;32;20126;-72
2022/04/06 06:45:18;;;;;;;15.35;8.30;;;;;;;11.39;72.09;98274.53;4379614;32;20480;-71
2022/04/06 06:47:46;;;;;;;23.40;12.15;;;;;;;11.57;69.82;98279.72;4379712;32;20461;-71
2022/04/06 06:53:43;;;;;;;21.40;11.27;;;;;;;12.09;67.35;98278.81;4379481;32;20122;-71
2022/04/06 06:56:11;;;;;;;19.73;10.95;;;;;;;12.32;67.25;98270.34;4379503;32;20119;-71
2022/04/06 06:58:38;;;;;;;21.05;12.30;;;;;;;12.21;67.96;98274.09;4379410;32;20436;-73
2022/04/06 07:01:05;;;;;;;22.00;11.60;;;;;;;12.35;64.65;98270.03;4379678;32;20094;-72
2022/04/06 07:03:32;;;;;;;22.27;10.20;;;;;;;12.76;64.95;98273.56;4379430;32;20099;-72
2022/04/06 07:06:00;;;;;;;19.02;9.00;;;;;;;12.96;65.61;98283.75;4379633;32;20086;-74
2022/04/06 07:11:58;;;;;;;16.70;8.88;;;;;;;13.62;64.60;98278.44;4379515;32;20149;-72
2022/04/06 07:14:26;;;;;;;19.60;10.00;;;;;;;13.48;64.19;98275.50;4379561;32;20099;-72
2022/04/06 07:16:54;;;;;;;16.67;8.75;;;;;;;13.66;63.37;98274.47;4379605;32;20082;-72
2022/04/06 07:19:21;;;;;;;16.77;9.02;;;;;;;13.78;61.90;98281.00;4379591;32;20493;-72
2022/04/06 07:21:48;;;;;;;16.58;9.50;;;;;;;13.71;62.14;98281.88;4379601;32;20149;-71
2022/04/06 07:24:16;;;;;;;17.65;8.48;;;;;;;13.45;62.54;98286.34;4378551;32;20091;-70
2022/04/06 07:26:44;;;;;;;15.85;8.52;;;;;;;13.47;63.12;98288.81;4378332;32;20503;-72
2022/04/06 07:32:41;;;;;;;10.85;7.05;;;;;;;13.81;61.71;98298.28;4379436;32;20117;-72
2022/04/06 07:35:09;;;;;;;15.20;7.82;;;;;;;13.95;64.22;98294.94;4379154;32;20756;-73
2022/04/06 07:37:40;;;;;;;16.98;8.73;;;;;;;14.12;59.99;98284.34;4379331;32;20117;-72
2022/04/06 07:40:10;;;;;;;12.25;7.65;;;;;;;13.91;61.81;98293.63;4379184;32;20109;-70
2022/04/06 07:46:07;;;;;;;13.40;7.40;;;;;;;14.42;60.21;98297.69;4379152;32;20130;-72
2022/04/06 07:52:05;;;;;;;13.18;7.72;;;;;;;14.11;61.99;98287.97;4379452;32;20128;-71
2022/04/06 07:54:33;;;;;;;15.57;8.32;;;;;;;13.80;61.70;98292.19;4365701;32;20086;-72
2022/04/06 07:57:00;;;;;;;12.73;8.07;;;;;;;13.54;62.25;98283.72;4379317;32;20153;-73
2022/04/06 07:59:27;;;;;;;14.65;7.75;;;;;;;13.63;62.06;98285.34;4378863;32;20111;-72
2022/04/06 08:05:25;;;;;;;10.77;6.05;;;;;;;13.65;62.94;98293.87;4379040;32;20141;-71
2022/04/06 08:08:11;;;;;;;9.02;6.03;;;;;;;13.73;61.77;98291.25;4379053;32;20134;-72
2022/04/06 08:10:38;;;;;;;9.95;5.90;;;;;;;14.05;60.75;98292.13;4379080;32;20082;-72
2022/04/06 08:13:06;;;;;;;13.32;6.15;;;;;;;13.74;61.44;98297.31;4379034;32;20113;-72
2022/04/06 08:15:33;;;;;;;11.15;6.57;;;;;;;13.88;60.96;98287.88;4378901;32;20091;-73
2022/04/06 08:21:31;;;;;;;10.38;6.15;;;;;;;14.36;59.21;98281.56;4379272;32;20113;-72
2022/04/06 08:27:16;;;;;;;9.70;5.35;;;;;;;15.24;58.59;98294.50;4378997;32;20132;-71
2022/04/06 08:33:15;;;;;;;9.38;5.28;;;;;;;15.29;56.07;98289.50;4378983;32;20117;-71
2022/04/06 08:35:43;;;;;;;9.10;5.15;;;;;;;15.22;58.30;98281.47;4378996;32;20165;-71
2022/04/06 08:41:40;;;;;;;12.05;4.78;;;;;;;15.85;53.97;98297.06;4378944;32;20135;-70
2022/04/06 08:44:09;;;;;;;10.27;5.20;;;;;;;15.70;54.76;98297.03;4378470;32;20118;-71
2022/04/06 08:50:07;;;;;;;8.82;5.37;;;;;;;15.95;56.65;98288.84;4378743;32;20148;-71
2022/04/06 08:55:51;;;;;;;9.35;5.65;;;;;;;16.10;54.57;98288.84;4378682;32;20572;-70
2022/04/06 08:58:19;;;;;;;11.15;5.50;;;;;;;15.98;55.26;98285.03;4378403;32;20094;-71
2022/04/06 09:00:46;;;;;;;8.45;5.25;;;;;;;15.99;54.20;98287.47;4378496;32;20078;-71
2022/04/06 09:06:44;;;;;;;10.90;5.78;;;;;;;16.21;53.08;98277.78;4378661;32;20182;-71
2022/04/06 09:09:11;;;;;;;8.43;5.55;;;;;;;16.22;53.58;98275.97;4378399;32;20095;-72
2022/04/06 09:15:11;;;;;;;7.15;4.95;;;;;;;16.49;55.52;98277.87;4378405;32;20127;-72
2022/04/06 09:21:11;;;;;;;10.75;6.03;;;;;;;16.64;54.48;98277.84;4378193;32;20141;-71
2022/04/06 09:23:39;;;;;;;10.63;6.40;;;;;;;16.62;53.64;98277.22;4378107;32;20487;-71
2022/04/06 09:26:12;;;;;;;17.42;6.35;;;;;;;16.78;57.92;98281.44;4378236;32;20087;-71
2022/04/06 09:28:41;;;;;;;20.02;6.43;;;;;;;17.19;53.25;98275.50;4378381;32;20126;-70
2022/04/06 09:34:41;;;;;;;7.97;5.80;;;;;;;17.15;52.35;98268.97;4377472;32;20497;-71
2022/04/06 09:37:23;;;;;;;9.05;5.93;;;;;;;17.60;50.73;98270.50;4377839;32;20759;-71
2022/04/06 09:43:29;;;;;;;5.80;4.18;;;;;;;17.81;48.46;98259.81;4377749;32;20113;-71
2022/04/06 09:49:28;;;;;;;8.90;5.97;;;;;;;17.62;49.30;98249.91;4379479;32;20125;-71
2022/04/06 09:55:26;;;;;;;9.40;6.05;;;;;;;18.02;51.47;98236.91;4379316;32;20113;-73
2022/04/06 10:01:26;;;;;;;13.02;4.85;;;;;;;18.35;50.47;98230.88;4380090;32;20183;-73
2022/04/06 10:07:24;;;;;;;7.00;4.45;;;;;;;17.95;48.40;98228.91;4379981;32;20136;-72
2022/04/06 10:13:25;;;;;;;7.87;5.25;;;;;;;18.22;49.01;98224.50;4379882;32;20126;-71
2022/04/06 10:19:49;;;;;;;9.60;6.22;;;;;;;18.34;48.67;98216.00;4379858;32;20109;-71
2022/04/06 10:25:56;;;;;;;9.50;6.20;;;;;;;18.24;49.90;98211.88;4379809;32;20162;-72
2022/04/06 10:31:54;;;;;;;12.65;6.07;;;;;;;18.09;49.04;98204.09;4379764;32;20178;-72
2022/04/06 10:34:24;;;;;;;10.13;6.40;;;;;;;18.36;46.66;98201.50;4379507;32;20094;-74
2022/04/06 10:37:11;;;;;;;12.07;6.20;;;;;;;18.25;46.94;98205.56;4379725;32;20335;-73
2022/04/06 10:39:51;;;;;;;11.15;7.53;;;;;;;18.07;49.14;98207.97;4379719;32;20121;-72
2022/04/06 10:45:48;;;;;;;10.93;7.10;;;;;;;18.34;47.11;98200.06;4379847;32;20104;-74
2022/04/06 10:51:56;;;;;;;11.95;7.05;;;;;;;17.93;49.18;98187.75;4379612;32;20119;-73
2022/04/06 10:58:03;;;;;;;14.90;8.77;;;;;;;18.05;50.90;98176.34;4379303;32;20145;-74
2022/04/06 11:04:20;;;;;;;15.43;8.40;;;;;;;18.50;47.82;98182.94;4379329;32;20122;-73
2022/04/06 11:06:49;;;;;;;10.65;8.18;;;;;;;18.38;47.70;98177.41;4379327;32;20138;-75
2022/04/06 11:12:58;;;;;;;12.13;8.93;;;;;;;19.19;48.48;98165.81;4379361;32;20251;-73
2022/04/06 11:18:56;;;;;;;12.80;8.80;;;;;;;19.12;48.08;98154.38;4379526;32;20156;-73
2022/04/06 11:21:25;;;;;;;12.65;9.43;;;;;;;19.35;48.83;98150.44;4379682;32;20117;-73
2022/04/06 11:27:33;;;;;;;13.57;9.43;;;;;;;20.10;44.91;98139.31;4379248;32;20178;-73
2022/04/06 11:33:42;;;;;;;17.20;8.82;;;;;;;19.61;45.40;98123.78;4378826;32;20519;-73
2022/04/06 11:39:39;;;;;;;14.02;9.23;;;;;;;20.11;47.42;98120.47;4378933;32;20158;-73
2022/04/06 11:42:15;;;;;;;12.45;8.75;;;;;;;20.25;43.82;98123.03;4378970;32;20117;-73
2022/04/06 11:48:15;;;;;;;11.85;8.65;;;;;;;20.66;42.57;98109.22;4379098;32;20275;-73
2022/04/06 11:50:48;;;;;;;12.48;9.25;;;;;;;20.30;45.19;98108.06;4379047;32;20106;-74
2022/04/06 11:53:18;;;;;;;11.90;9.30;;;;;;;20.14;43.99;98098.78;4379151;32;20074;-73
2022/04/06 11:55:51;;;;;;;14.95;9.15;;;;;;;20.45;44.79;98094.44;4378802;32;20386;-73
2022/04/06 12:01:47;;;;;;;11.18;8.73;;;;;;;20.53;42.70;98093.34;4379062;32;20474;-73
2022/04/06 12:07:45;;;;;;;10.82;8.65;;;;;;;20.73;41.04;98079.91;4378627;32;20117;-72
2022/04/06 12:13:44;;;;;;;9.93;7.93;;;;;;;20.18;42.80;98061.91;4378903;32;20140;-73
2022/04/06 12:19:42;;;;;;;11.12;6.70;;;;;;;20.32;42.02;98044.81;4379011;32;20133;-73
2022/04/06 12:25:40;;;;;;;7.78;6.40;;;;;;;20.72;38.41;98044.47;4378864;32;20116;-72
2022/04/06 12:28:17;;;;;;;7.97;4.65;;;;;;;20.52;41.36;98038.50;4378868;32;20125;-72
2022/04/06 12:31:05;;;;;;;9.05;5.85;;;;;;;20.06;40.71;98035.22;4379091;32;20071;-71
2022/04/06 12:36:48;;;;;;;7.32;5.97;;;;;;;20.60;39.09;98019.59;4377997;32;20153;-72
2022/04/06 12:42:46;;;;;;;10.13;8.10;;;;;;;20.79;38.60;98019.63;4378662;32;20109;-72
2022/04/06 12:45:14;;;;;;;7.15;4.57;;;;;;;20.76;37.99;98004.09;4365282;32;20099;-73
2022/04/06 12:47:41;;;;;;;7.97;5.30;;;;;;;20.86;37.24;97996.41;4365096;32;20432;-73
2022/04/06 12:53:49;;;;;;;11.02;7.87;;;;;;;20.67;41.65;97993.75;4378551;32;20141;-73
2022/04/06 12:56:22;;;;;;;8.20;6.50;;;;;;;20.80;38.82;97982.13;4378679;32;20209;-73
2022/04/06 13:02:22;;;;;;;8.15;5.37;;;;;;;20.93;38.80;97981.19;4378762;32;20141;-72
2022/04/06 13:04:51;;;;;;;8.77;5.60;;;;;;;21.31;37.82;97974.75;4378610;32;20121;-73
2022/04/06 13:07:18;;;;;;;8.50;6.80;;;;;;;21.33;39.03;97967.31;4378451;32;20539;-71
2022/04/06 13:10:08;;;;;;;7.70;6.22;;;;;;;21.17;39.44;97970.66;4378708;32;20091;-72
2022/04/06 13:12:36;;;;;;;9.32;6.90;;;;;;;21.51;36.27;97965.69;4378607;32;20467;-72
2022/04/06 13:15:06;;;;;;;10.32;6.03;;;;;;;21.57;36.94;97956.78;4378296;32;20495;-72
2022/04/06 13:17:34;;;;;;;7.90;6.47;;;;;;;21.84;37.19;97956.38;4378439;32;20091;-71
2022/04/06 13:20:06;;;;;;;9.77;6.68;;;;;;;21.78;37.13;97958.91;4378557;32;20099;-71
2022/04/06 13:22:34;;;;;;;8.65;6.18;;;;;;;21.68;36.27;97940.00;4378230;32;20105;-71
2022/04/06 13:28:32;;;;;;;8.85;6.43;;;;;;;21.16;38.92;97942.37;4380268;32;20161;-72
2022/04/06 13:31:01;;;;;;;9.23;6.25;;;;;;;21.37;37.89;97925.88;4379898;32;20090;-72
2022/04/06 13:33:28;;;;;;;8.57;6.10;;;;;;;21.51;38.71;97931.03;4380126;32;20113;-72
2022/04/06 13:35:56;;;;;;;10.73;7.22;;;;;;;21.90;39.19;97923.44;4379942;32;20102;-72
2022/04/06 13:38:24;;;;;;;9.77;7.05;;;;;;;22.09;36.91;97908.12;4380189;32;20091;-71
2022/04/06 13:40:54;;;;;;;12.52;6.70;;;;;;;21.69;37.21;97908.81;4379911;32;20106;-72
2022/04/06 13:43:21;;;;;;;9.95;6.85;;;;;;;21.49;39.18;97901.12;4366652;32;20159;-72
2022/04/06 13:45:49;;;;;;;9.38;6.50;;;;;;;21.62;38.23;97901.75;4380193;32;20095;-72
2022/04/06 13:48:18;;;;;;;9.95;6.20;;;;;;;22.23;37.29;97903.38;4380101;32;20099;-71
2022/04/06 13:50:45;;;;;;;7.62;5.93;;;;;;;22.49;37.07;97894.88;4380324;32;20160;-72
2022/04/06 13:53:13;;;;;;;9.70;6.57;;;;;;;22.40;36.82;97879.47;4380077;32;20484;-72
2022/04/06 13:55:40;;;;;;;9.10;5.22;;;;;;;22.24;36.57;97875.63;4379607;32;20090;-72
2022/04/06 13:58:08;;;;;;;9.32;5.68;;;;;;;22.60;35.06;97871.88;4379925;32;20094;-72
2022/04/06 14:00:36;;;;;;;10.75;5.10;;;;;;;22.41;34.49;97868.56;4379889;32;20095;-72
2022/04/06 14:03:03;;;;;;;6.70;4.50;;;;;;;22.26;34.60;97862.91;4379982;32;20095;-72
2022/04/06 14:05:31;;;;;;;9.63;5.47;;;;;;;22.06;34.53;97861.41;4380103;32;20090;-72
2022/04/06 14:08:05;;;;;;;6.35;4.93;;;;;;;22.25;34.46;97855.94;4380092;32;20086;-73
2022/04/06 14:10:32;;;;;;;7.10;4.35;;;;;;;22.15;34.62;97857.34;4379869;32;20122;-72
2022/04/06 14:12:59;;;;;;;7.45;5.05;;;;;;;22.27;35.15;97851.16;4379841;32;20129;-72
2022/04/06 14:15:27;;;;;;;6.80;4.55;;;;;;;22.42;34.86;97846.19;4379937;32;20147;-72
2022/04/06 14:17:54;;;;;;;9.35;5.25;;;;;;;22.54;35.35;97848.00;4379913;32;20094;-72
2022/04/06 14:20:22;;;;;;;6.85;4.87;;;;;;;22.81;32.94;97835.69;4379790;32;20181;-72
2022/04/06 14:22:49;;;;;;;7.28;4.82;;;;;;;22.74;33.63;97837.72;4379940;32;20459;-72
2022/04/06 14:28:46;;;;;;;8.98;6.60;;;;;;;22.91;33.09;97826.22;4379914;32;20475;-71
2022/04/06 14:31:20;;;;;;;7.65;5.10;;;;;;;22.57;33.05;97820.81;4379614;32;20091;-71
2022/04/06 14:33:48;;;;;;;10.32;5.57;;;;;;;22.49;34.66;97820.16;4379645;32;20471;-70
2022/04/06 14:36:15;;;;;;;8.73;5.55;;;;;;;22.66;34.36;97817.53;4379620;32;20090;-71
2022/04/06 14:38:42;;;;;;;7.95;5.15;;;;;;;22.40;33.13;97810.91;4379786;32;20091;-71
2022/04/06 14:41:10;;;;;;;6.55;4.53;;;;;;;22.57;33.57;97810.16;4379874;32;20449;-70
2022/04/06 14:43:37;;;;;;;7.20;4.93;;;;;;;22.52;34.82;97808.19;4379575;32;20083;-71
2022/04/06 14:46:06;;;;;;;10.55;5.78;;;;;;;22.43;34.15;97805.09;4379593;32;20083;-70
2022/04/06 14:48:33;;;;;;;8.02;4.97;;;;;;;22.71;33.12;97794.62;4379749;32;20145;-70
2022/04/06 14:54:30;;;;;;;7.75;4.53;;;;;;;22.30;34.93;97789.31;4379581;32;20113;-70
2022/04/06 14:56:57;;;;;;;6.93;4.55;;;;;;;22.89;32.07;97774.94;4379642;32;20099;-71
2022/04/06 14:59:29;;;;;;;7.03;4.20;;;;;;;22.67;34.34;97780.97;4379616;32;20142;-70